createdAt,value
2023-05-28T00:01:29.069Z,14.51
2023-05-28T00:03:56.830Z,14.42
2023-05-28T00:06:24.479Z,14.41
2023-05-28T00:08:52.009Z,14.49
2023-05-28T00:11:19.566Z,14.28
2023-05-28T00:13:47.033Z,14.28
2023-05-28T00:16:15.330Z,14.22
2023-05-28T00:18:44.057Z,14.27
2023-05-28T00:21:11.742Z,14.20
2023-05-28T00:23:39.241Z,14.28
2023-05-28T00:26:07.062Z,14.11
2023-05-28T00:28:34.563Z,14.13
2023-05-28T00:31:03.482Z,14.09
2023-05-28T00:33:30.981Z,14.11
2023-05-28T00:35:59.949Z,14.00
2023-05-28T00:38:27.630Z,14.03
2023-05-28T00:40:55.699Z,13.98
2023-05-28T00:43:23.580Z,13.93
2023-05-28T00:45:52.883Z,13.93
2023-05-28T00:48:21.235Z,13.98
2023-05-28T00:50:49.365Z,13.86
2023-05-28T00:53:18.583Z,13.79
2023-05-28T00:55:46.496Z,13.90
2023-05-28T00:58:14.434Z,13.78
2023-05-28T01:00:44.130Z,13.77
2023-05-28T01:03:11.936Z,13.68
2023-05-28T01:05:39.689Z,13.77
2023-05-28T01:08:08.573Z,13.69
2023-05-28T01:10:38.247Z,13.71
2023-05-28T01:13:08.964Z,13.67
2023-05-28T01:15:38.236Z,13.62
2023-05-28T01:18:07.359Z,13.68
2023-05-28T01:20:35.007Z,13.57
2023-05-28T01:23:08.725Z,13.57
2023-05-28T01:25:38.645Z,13.53
2023-05-28T01:28:13.822Z,13.61
2023-05-28T01:30:41.391Z,13.57
2023-05-28T01:33:09.089Z,13.46
2023-05-28T01:35:36.773Z,13.40
2023-05-28T01:38:05.470Z,13.35
2023-05-28T01:40:34.831Z,13.33
2023-05-28T01:43:04.801Z,13.34
2023-05-28T01:45:32.829Z,13.33
2023-05-28T01:48:00.430Z,13.35
2023-05-28T01:50:29.650Z,13.24
2023-05-28T01:52:57.328Z,13.22
2023-05-28T01:55:25.371Z,13.24
2023-05-28T01:57:52.930Z,13.13
2023-05-28T02:00:23.407Z,13.17
2023-05-28T02:02:51.003Z,13.08
2023-05-28T02:05:18.790Z,13.06
2023-05-28T02:07:46.332Z,13.10
2023-05-28T02:10:13.897Z,13.05
2023-05-28T02:12:41.366Z,13.08
2023-05-28T02:15:09.504Z,12.98
2023-05-28T02:17:38.411Z,13.01
2023-05-28T02:20:07.170Z,12.99
2023-05-28T02:22:34.732Z,12.92
2023-05-28T02:25:02.249Z,12.85
2023-05-28T02:27:29.769Z,12.90
2023-05-28T02:29:57.306Z,12.82
2023-05-28T02:32:24.930Z,12.87
2023-05-28T02:34:55.616Z,12.89
2023-05-28T02:37:24.898Z,12.64
2023-05-28T02:39:52.716Z,12.67
2023-05-28T02:42:20.262Z,12.78
2023-05-28T02:44:47.738Z,12.69
2023-05-28T02:47:15.222Z,12.70
2023-05-28T02:49:42.750Z,12.66
2023-05-28T02:52:11.589Z,12.52
2023-05-28T02:54:39.090Z,12.66
2023-05-28T02:57:07.119Z,12.59
2023-05-28T02:59:34.659Z,12.54
2023-05-28T03:02:02.222Z,12.60
2023-05-28T03:04:29.761Z,12.62
2023-05-28T03:06:57.275Z,12.54
2023-05-28T03:09:26.101Z,12.41
2023-05-28T03:11:53.613Z,12.42
2023-05-28T03:14:21.112Z,12.45
2023-05-28T03:16:48.830Z,12.30
2023-05-28T03:19:16.418Z,12.31
2023-05-28T03:21:43.898Z,12.34
2023-05-28T03:24:11.410Z,12.45
2023-05-28T03:26:40.393Z,12.44
2023-05-28T03:29:07.861Z,12.32
2023-05-28T03:31:45.369Z,12.35
2023-05-28T03:34:13.222Z,12.26
2023-05-28T03:36:41.495Z,12.27
2023-05-28T03:39:09.247Z,12.23
2023-05-28T03:41:37.099Z,12.32
2023-05-28T03:44:07.271Z,11.96
2023-05-28T03:46:34.962Z,11.56
2023-05-28T03:49:02.534Z,11.71
2023-05-28T03:51:30.212Z,11.99
2023-05-28T03:53:57.696Z,12.20
2023-05-28T03:56:25.466Z,12.16
2023-05-28T03:58:53.013Z,12.22
2023-05-28T04:01:21.984Z,12.28
2023-05-28T04:03:49.608Z,12.30
2023-05-28T04:06:17.516Z,12.35
2023-05-28T04:08:45.079Z,12.51
2023-05-28T04:11:12.590Z,12.56
2023-05-28T04:13:40.254Z,12.50
2023-05-28T04:16:08.539Z,12.63
2023-05-28T04:18:37.483Z,12.61
2023-05-28T04:21:05.215Z,12.65
2023-05-28T04:23:32.703Z,12.70
2023-05-28T04:26:00.846Z,12.75
2023-05-28T04:28:28.808Z,12.86
2023-05-28T04:30:56.898Z,12.79
2023-05-28T04:33:25.055Z,12.91
2023-05-28T04:35:54.277Z,12.98
2023-05-28T04:38:22.196Z,13.21
2023-05-28T04:40:50.524Z,13.29
2023-05-28T04:43:18.255Z,13.01
2023-05-28T04:45:45.749Z,13.40
2023-05-28T04:48:13.262Z,13.55
2023-05-28T04:50:41.315Z,13.43
2023-05-28T04:53:10.267Z,13.43
2023-05-28T04:55:37.773Z,13.60
2023-05-28T04:58:05.292Z,13.70
2023-05-28T05:00:32.783Z,13.58
2023-05-28T05:03:00.370Z,13.67
2023-05-28T05:05:27.961Z,13.50
2023-05-28T05:07:55.436Z,13.85
2023-05-28T05:10:24.608Z,13.78
2023-05-28T05:12:52.153Z,13.89
2023-05-28T05:15:19.707Z,13.58
2023-05-28T05:17:47.890Z,13.65
2023-05-28T05:20:15.509Z,13.61
2023-05-28T05:22:43.054Z,13.26
2023-05-28T05:25:11.019Z,13.74
2023-05-28T05:27:39.873Z,14.20
2023-05-28T05:30:09.120Z,13.36
2023-05-28T05:32:36.680Z,13.80
2023-05-28T05:35:04.543Z,14.01
2023-05-28T05:37:32.051Z,14.10
2023-05-28T05:39:59.582Z,13.97
2023-05-28T05:42:27.079Z,14.40
2023-05-28T05:44:56.005Z,14.36
2023-05-28T05:47:23.573Z,14.03
2023-05-28T05:49:51.122Z,14.28
2023-05-28T05:52:18.603Z,14.35
2023-05-28T05:54:46.330Z,14.53
2023-05-28T05:57:14.126Z,14.13
2023-05-28T05:59:41.616Z,14.17
2023-05-28T06:02:10.994Z,14.51
2023-05-28T06:04:39.309Z,14.90
2023-05-28T06:07:07.746Z,15.18
2023-05-28T06:09:35.449Z,14.81
2023-05-28T06:12:03.958Z,14.94
2023-05-28T06:14:31.455Z,15.06
2023-05-28T06:16:59.019Z,15.12
2023-05-28T06:19:27.920Z,15.32
2023-05-28T06:21:55.406Z,14.69
2023-05-28T06:24:22.954Z,15.02
2023-05-28T06:26:50.465Z,15.54
2023-05-28T06:29:17.957Z,15.42
2023-05-28T06:31:45.674Z,15.31
2023-05-28T06:34:13.200Z,15.49
2023-05-28T06:36:42.620Z,15.60
2023-05-28T06:39:10.472Z,15.60
2023-05-28T06:41:38.075Z,15.79
2023-05-28T06:44:05.827Z,15.85
2023-05-28T06:46:33.518Z,16.09
2023-05-28T06:49:01.337Z,16.36
2023-05-28T06:51:28.857Z,15.60
2023-05-28T06:53:57.707Z,16.10
2023-05-28T06:56:25.474Z,16.48
2023-05-28T06:58:53.001Z,16.23
2023-05-28T07:01:20.562Z,16.50
2023-05-28T07:03:48.165Z,16.61
2023-05-28T07:06:16.191Z,16.10
2023-05-28T07:08:45.571Z,16.19
2023-05-28T07:11:15.137Z,16.51
2023-05-28T07:13:42.777Z,16.65
2023-05-28T07:16:10.323Z,16.55
2023-05-28T07:18:38.184Z,16.91
2023-05-28T07:21:06.687Z,16.66
2023-05-28T07:23:34.306Z,16.29
2023-05-28T07:26:03.267Z,16.71
2023-05-28T07:28:32.392Z,17.13
2023-05-28T07:30:59.935Z,16.89
2023-05-28T07:33:27.430Z,17.12
2023-05-28T07:35:55.230Z,16.83
2023-05-28T07:38:22.877Z,17.14
2023-05-28T07:40:51.769Z,17.73
2023-05-28T07:43:19.265Z,17.70
2023-05-28T07:45:48.148Z,17.88
2023-05-28T07:48:15.831Z,17.65
2023-05-28T07:50:43.392Z,18.69
2023-05-28T07:53:11.465Z,17.95
2023-05-28T07:55:39.320Z,17.53
2023-05-28T07:58:07.025Z,17.89
2023-05-28T08:00:34.564Z,17.54
2023-05-28T08:03:03.537Z,18.34
2023-05-28T08:05:31.650Z,18.38
2023-05-28T08:07:59.222Z,19.28
2023-05-28T08:10:26.758Z,18.10
2023-05-28T08:12:54.287Z,18.51
2023-05-28T08:15:21.957Z,18.16
2023-05-28T08:17:49.525Z,18.71
2023-05-28T08:20:18.637Z,18.84
2023-05-28T08:22:46.155Z,19.39
2023-05-28T08:25:13.994Z,18.50
2023-05-28T08:27:41.553Z,19.19
2023-05-28T08:30:10.210Z,19.29
2023-05-28T08:32:37.768Z,18.56
2023-05-28T08:35:05.780Z,18.59
2023-05-28T08:37:34.806Z,18.59
2023-05-28T08:40:02.380Z,18.68
2023-05-28T08:42:29.891Z,18.91
2023-05-28T08:44:57.443Z,18.80
2023-05-28T08:47:25.327Z,19.26
2023-05-28T08:49:54.338Z,19.14
2023-05-28T08:52:22.702Z,19.47
2023-05-28T08:54:51.790Z,19.67
2023-05-28T08:57:20.073Z,19.67
2023-05-28T08:59:49.252Z,19.43
2023-05-28T09:02:16.786Z,19.38
2023-05-28T09:04:47.105Z,19.44
2023-05-28T09:07:14.692Z,19.30
2023-05-28T09:09:42.601Z,19.31
2023-05-28T09:12:14.078Z,19.85
2023-05-28T09:14:43.506Z,19.66
2023-05-28T09:17:11.777Z,19.67
2023-05-28T09:19:39.538Z,19.51
2023-05-28T09:22:07.195Z,19.42
2023-05-28T09:24:34.795Z,20.13
2023-05-28T09:27:02.773Z,19.75
2023-05-28T09:29:31.783Z,20.20
2023-05-28T09:32:01.096Z,19.89
2023-05-28T09:34:29.782Z,19.85
2023-05-28T09:37:01.786Z,20.21
2023-05-28T09:39:29.500Z,20.65
2023-05-28T09:42:01.473Z,20.34
2023-05-28T09:44:33.430Z,20.25
2023-05-28T09:47:03.707Z,20.52
2023-05-28T09:49:31.801Z,20.45
2023-05-28T09:52:00.658Z,20.95
2023-05-28T09:54:32.663Z,20.59
2023-05-28T09:57:03.110Z,20.63
2023-05-28T09:59:33.388Z,20.67
2023-05-28T10:02:06.752Z,20.68
2023-05-28T10:04:38.072Z,20.72
2023-05-28T10:07:06.547Z,20.42
2023-05-28T10:09:35.039Z,20.50
2023-05-28T10:12:10.878Z,20.84
2023-05-28T10:14:41.883Z,20.77
2023-05-28T10:17:10.356Z,20.86
2023-05-28T10:19:39.450Z,21.43
2023-05-28T10:22:07.846Z,21.09
2023-05-28T10:24:36.285Z,20.92
2023-05-28T10:27:06.850Z,21.26
2023-05-28T10:29:42.112Z,21.07
2023-05-28T10:32:09.710Z,21.16
2023-05-28T10:34:38.484Z,20.91
2023-05-28T10:37:08.547Z,21.14
2023-05-28T10:39:39.691Z,21.14
2023-05-28T10:42:09.936Z,21.27
2023-05-28T10:45:07.771Z,21.58
2023-05-28T10:47:36.667Z,21.40
2023-05-28T10:50:17.416Z,21.68
2023-05-28T10:53:04.949Z,21.28
2023-05-28T10:55:48.352Z,21.59
2023-05-28T10:58:24.759Z,21.66
2023-05-28T11:00:54.371Z,21.86
2023-05-28T11:03:46.672Z,21.57
2023-05-28T11:06:15.127Z,21.88
2023-05-28T11:08:44.206Z,21.49
2023-05-28T11:11:16.657Z,21.26
2023-05-28T11:13:45.762Z,21.39
2023-05-28T11:16:16.804Z,21.39
2023-05-28T11:19:02.293Z,21.52
2023-05-28T11:21:30.010Z,21.74
2023-05-28T11:24:01.861Z,21.68
2023-05-28T11:26:29.629Z,22.06
2023-05-28T11:28:57.279Z,21.77
2023-05-28T11:31:26.401Z,22.26
2023-05-28T11:33:54.057Z,21.95
2023-05-28T11:36:22.424Z,22.00
2023-05-28T11:39:01.798Z,22.48
2023-05-28T11:41:29.361Z,22.83
2023-05-28T11:43:56.850Z,22.41
2023-05-28T11:46:25.990Z,22.72
2023-05-28T11:48:53.561Z,22.46
2023-05-28T11:51:21.793Z,21.85
2023-05-28T11:53:49.520Z,22.14
2023-05-28T11:56:17.087Z,22.13
2023-05-28T11:58:49.336Z,22.45
2023-05-28T12:01:18.543Z,22.29
2023-05-28T12:03:47.622Z,22.56
2023-05-28T12:06:23.018Z,22.63
2023-05-28T12:08:56.606Z,22.48
2023-05-28T12:11:27.606Z,22.09
2023-05-28T12:13:55.149Z,22.14
2023-05-28T12:16:22.841Z,21.99
2023-05-28T12:18:51.852Z,22.27
2023-05-28T12:21:21.384Z,21.85
2023-05-28T12:23:49.069Z,21.75
2023-05-28T12:26:17.023Z,22.05
2023-05-28T12:28:44.432Z,22.35
2023-05-28T12:31:12.204Z,22.85
2023-05-28T12:36:10.063Z,22.84
2023-05-28T12:38:37.699Z,22.53
2023-05-28T12:41:05.781Z,21.86
2023-05-28T12:43:33.304Z,22.20
2023-05-28T12:46:01.195Z,22.30
2023-05-28T12:48:28.953Z,22.40
2023-05-28T12:50:56.775Z,22.18
2023-05-28T12:53:25.875Z,22.70
2023-05-28T12:55:53.535Z,22.68
2023-05-28T12:58:22.272Z,22.45
2023-05-28T13:00:50.738Z,22.47
2023-05-28T13:03:20.737Z,22.63
2023-05-28T13:05:48.495Z,22.26
2023-05-28T13:08:17.692Z,22.38
2023-05-28T13:10:46.580Z,22.57
2023-05-28T13:13:14.146Z,22.40
2023-05-28T13:15:42.032Z,22.66
2023-05-28T13:18:09.493Z,22.51
2023-05-28T13:20:37.062Z,23.11
2023-05-28T13:23:04.690Z,22.42
2023-05-28T13:25:32.334Z,22.74
2023-05-28T13:28:02.995Z,22.85
2023-05-28T13:30:31.091Z,22.60
2023-05-28T13:32:58.812Z,22.52
2023-05-28T13:35:26.406Z,22.85
2023-05-28T13:37:54.099Z,22.85
2023-05-28T13:40:22.442Z,22.91
2023-05-28T13:42:50.872Z,22.97
2023-05-28T13:45:19.853Z,22.85
2023-05-28T13:47:47.523Z,22.72
2023-05-28T13:50:15.805Z,22.83
2023-05-28T13:52:45.311Z,22.92
2023-05-28T13:55:12.862Z,22.75
2023-05-28T13:57:40.427Z,22.62
2023-05-28T14:00:11.658Z,22.54
2023-05-28T14:02:42.151Z,23.12
2023-05-28T14:05:10.238Z,22.80
2023-05-28T14:07:37.891Z,22.97
2023-05-28T14:10:06.219Z,22.96
2023-05-28T14:12:33.745Z,22.89
2023-05-28T14:15:02.156Z,23.30
2023-05-28T14:17:29.791Z,23.24
2023-05-28T14:19:58.816Z,23.10
2023-05-28T14:22:26.799Z,23.11
2023-05-28T14:24:54.389Z,23.05
2023-05-28T14:27:22.060Z,23.36
2023-05-28T14:29:49.629Z,23.50
2023-05-28T14:32:17.166Z,23.36
2023-05-28T14:34:46.074Z,23.38
2023-05-28T14:37:15.055Z,23.61
2023-05-28T14:39:42.750Z,23.24
2023-05-28T14:42:10.488Z,23.13
2023-05-28T14:44:38.029Z,22.82
2023-05-28T14:47:06.341Z,23.59
2023-05-28T14:49:34.091Z,23.26
2023-05-28T14:52:24.295Z,22.98
2023-05-28T14:54:51.853Z,23.20
2023-05-28T14:57:19.842Z,23.16
2023-05-28T14:59:47.386Z,23.24
2023-05-28T15:02:15.206Z,23.32
2023-05-28T15:04:45.212Z,22.99
2023-05-28T15:07:14.139Z,23.15
2023-05-28T15:09:43.040Z,23.42
2023-05-28T15:12:12.115Z,23.38
2023-05-28T15:14:39.612Z,23.49
2023-05-28T15:17:07.195Z,23.24
2023-05-28T15:19:36.093Z,23.37
2023-05-28T15:22:05.156Z,23.23
2023-05-28T15:24:33.064Z,23.47
2023-05-28T15:27:02.321Z,23.33
2023-05-28T15:29:30.848Z,23.37
2023-05-28T15:31:59.040Z,23.37
2023-05-28T15:34:27.062Z,23.37
2023-05-28T15:36:55.112Z,22.95
2023-05-28T15:39:23.203Z,23.30
2023-05-28T15:41:53.464Z,23.18
2023-05-28T15:44:23.050Z,23.19
2023-05-28T15:46:50.803Z,23.16
2023-05-28T15:49:18.222Z,23.21
2023-05-28T15:51:45.781Z,23.12
2023-05-28T15:54:14.693Z,23.12
2023-05-28T15:56:42.428Z,22.89
2023-05-28T15:59:10.314Z,23.01
2023-05-28T16:01:41.554Z,23.10
2023-05-28T16:04:09.796Z,23.01
2023-05-28T16:06:37.691Z,23.04
2023-05-28T16:09:06.253Z,22.98
2023-05-28T16:11:37.864Z,23.15
2023-05-28T16:14:07.339Z,23.04
2023-05-28T16:16:36.457Z,23.06
2023-05-28T16:19:05.968Z,23.17
2023-05-28T16:21:35.591Z,23.05
2023-05-28T16:24:03.259Z,23.03
2023-05-28T16:26:31.355Z,23.13
2023-05-28T16:28:59.050Z,23.11
2023-05-28T16:31:27.209Z,23.06
2023-05-28T16:33:54.942Z,23.07
2023-05-28T16:36:24.334Z,23.02
2023-05-28T16:38:53.838Z,22.99
2023-05-28T16:41:22.921Z,22.69
2023-05-28T16:43:51.118Z,22.89
2023-05-28T16:46:20.299Z,22.86
2023-05-28T16:48:48.468Z,22.82
2023-05-28T16:51:17.646Z,22.87
2023-05-28T16:53:47.633Z,22.76
2023-05-28T16:56:16.420Z,22.72
2023-05-28T16:58:43.989Z,22.69
2023-05-28T17:01:11.512Z,22.67
2023-05-28T17:03:39.359Z,22.66
2023-05-28T17:06:06.898Z,22.62
2023-05-28T17:08:34.627Z,22.76
2023-05-28T17:11:03.436Z,22.74
2023-05-28T17:13:31.008Z,22.64
2023-05-28T17:15:58.571Z,22.54
2023-05-28T17:18:26.119Z,22.46
2023-05-28T17:20:53.734Z,22.45
2023-05-28T17:23:21.793Z,22.52
2023-05-28T17:25:49.307Z,22.39
2023-05-28T17:28:18.133Z,22.33
2023-05-28T17:30:45.678Z,22.34
2023-05-28T17:33:13.333Z,22.27
2023-05-28T17:35:41.079Z,22.35
2023-05-28T17:38:11.500Z,22.12
2023-05-28T17:40:39.070Z,22.08
2023-05-28T17:43:06.784Z,22.01
2023-05-28T17:45:35.868Z,22.01
2023-05-28T17:48:04.904Z,21.99
2023-05-28T17:50:32.532Z,21.86
2023-05-28T17:53:00.011Z,21.82
2023-05-28T17:55:27.514Z,21.73
2023-05-28T17:57:54.980Z,21.62
2023-05-28T18:00:22.896Z,21.61
2023-05-28T18:02:52.702Z,21.59
2023-05-28T18:05:20.320Z,21.37
2023-05-28T18:07:47.821Z,21.43
2023-05-28T18:10:15.460Z,21.38
2023-05-28T18:12:43.576Z,21.21
2023-05-28T18:15:12.305Z,21.09
2023-05-28T18:17:40.050Z,21.12
2023-05-28T18:20:10.507Z,20.98
2023-05-28T18:22:38.153Z,20.84
2023-05-28T18:25:07.667Z,20.77
2023-05-28T18:27:35.284Z,20.73
2023-05-28T18:30:02.861Z,20.70
2023-05-28T18:32:30.502Z,20.56
2023-05-28T18:34:58.734Z,20.70
2023-05-28T18:37:27.614Z,20.48
2023-05-28T18:39:55.122Z,20.52
2023-05-28T18:42:22.672Z,20.46
2023-05-28T18:44:50.246Z,20.36
2023-05-28T18:47:17.973Z,20.11
2023-05-28T18:49:45.544Z,20.18
2023-05-28T18:52:13.974Z,20.06
2023-05-28T18:54:42.798Z,20.18
2023-05-28T18:57:10.532Z,20.18
2023-05-28T18:59:41.841Z,20.24
2023-05-28T19:02:12.075Z,19.65
2023-05-28T19:04:39.636Z,19.73
2023-05-28T19:07:07.287Z,19.99
2023-05-28T19:09:34.847Z,19.55
2023-05-28T19:12:03.692Z,19.49
2023-05-28T19:14:31.226Z,19.42
2023-05-28T19:16:58.749Z,19.25
2023-05-28T19:19:26.268Z,19.58
2023-05-28T19:21:53.762Z,19.19
2023-05-28T19:24:21.484Z,19.27
2023-05-28T19:26:49.311Z,19.27
2023-05-28T19:29:18.201Z,19.41
2023-05-28T19:31:45.892Z,19.66
2023-05-28T19:34:13.429Z,19.04
2023-05-28T19:36:41.463Z,19.17
2023-05-28T19:39:10.442Z,19.02
2023-05-28T19:41:38.805Z,18.86
2023-05-28T19:44:07.940Z,18.88
2023-05-28T19:46:37.149Z,19.31
2023-05-28T19:49:04.739Z,19.13
2023-05-28T19:51:32.863Z,19.16
2023-05-28T19:54:00.482Z,19.36
2023-05-28T19:56:28.078Z,19.50
2023-05-28T19:58:55.917Z,18.88
2023-05-28T20:01:25.292Z,18.82
2023-05-28T20:03:54.342Z,18.30
2023-05-28T20:06:23.101Z,18.99
2023-05-28T20:08:50.654Z,19.29
2023-05-28T20:11:18.214Z,18.47
2023-05-28T20:13:45.767Z,18.91
2023-05-28T20:16:14.648Z,18.81
2023-05-28T20:18:42.172Z,18.15
2023-05-28T20:21:11.734Z,18.70
2023-05-28T20:23:39.297Z,18.86
2023-05-28T20:26:06.984Z,18.22
2023-05-28T20:28:34.559Z,18.57
2023-05-28T20:31:02.178Z,18.53
2023-05-28T20:33:30.541Z,18.28
2023-05-28T20:35:58.623Z,18.32
2023-05-28T20:38:27.821Z,17.86
2023-05-28T20:40:55.787Z,17.89
2023-05-28T20:43:23.620Z,18.09
2023-05-28T20:45:53.405Z,18.29
2023-05-28T20:48:21.480Z,18.70
2023-05-28T20:50:48.945Z,18.38
2023-05-28T20:53:16.528Z,18.62
2023-05-28T20:55:45.606Z,18.40
2023-05-28T20:58:19.324Z,18.33
2023-05-28T21:00:54.184Z,18.12
2023-05-28T21:03:22.975Z,18.40
2023-05-28T21:05:50.620Z,18.38
2023-05-28T21:08:18.131Z,17.26
2023-05-28T21:10:47.054Z,17.81
2023-05-28T21:13:15.320Z,18.30
2023-05-28T21:15:42.844Z,18.05
2023-05-28T21:18:10.482Z,18.24
2023-05-28T21:20:39.326Z,17.98
2023-05-28T21:23:07.139Z,18.25
2023-05-28T21:25:34.759Z,18.17
2023-05-28T21:28:03.650Z,17.84
2023-05-28T21:30:31.516Z,18.06
2023-05-28T21:32:59.175Z,18.00
2023-05-28T21:35:26.657Z,18.04
2023-05-28T21:37:54.223Z,18.02
2023-05-28T21:40:22.620Z,17.95
2023-05-28T21:42:50.669Z,17.86
2023-05-28T21:45:19.680Z,17.81
2023-05-28T21:47:47.247Z,17.75
2023-05-28T21:50:15.091Z,17.69
2023-05-28T21:52:42.593Z,17.78
2023-05-28T21:55:10.109Z,17.77
2023-05-28T21:57:39.263Z,17.66
2023-05-28T22:00:12.757Z,17.63
2023-05-28T22:02:41.903Z,17.60
2023-05-28T22:05:13.155Z,17.60
2023-05-28T22:07:40.685Z,17.51
2023-05-28T22:10:12.871Z,17.52
2023-05-28T22:12:41.902Z,17.47
2023-05-28T22:15:10.612Z,17.53
2023-05-28T22:17:41.633Z,17.34
2023-05-28T22:20:13.682Z,17.33
2023-05-28T22:22:42.922Z,17.25
2023-05-28T22:25:11.846Z,17.26
2023-05-28T22:27:40.507Z,17.33
2023-05-28T22:30:09.332Z,17.34
2023-05-28T22:32:36.967Z,17.26
2023-05-28T22:35:05.432Z,17.15
2023-05-28T22:37:34.337Z,17.06
2023-05-28T22:40:01.984Z,17.13
2023-05-28T22:42:30.536Z,17.17
2023-05-28T22:44:58.046Z,17.17
2023-05-28T22:47:27.724Z,17.14
2023-05-28T22:49:56.977Z,17.05
2023-05-28T22:52:25.564Z,17.01
2023-05-28T22:54:54.435Z,16.94
2023-05-28T22:57:22.046Z,16.83
2023-05-28T22:59:49.598Z,16.97
2023-05-28T23:02:17.205Z,16.79
2023-05-28T23:04:44.790Z,16.80
2023-05-28T23:07:12.342Z,16.74
2023-05-28T23:09:40.028Z,16.71
2023-05-28T23:12:08.911Z,16.72
2023-05-28T23:14:37.035Z,16.70
2023-05-28T23:17:04.613Z,16.56
2023-05-28T23:19:35.226Z,16.59
2023-05-28T23:22:03.005Z,16.64
2023-05-28T23:24:30.737Z,16.59
2023-05-28T23:26:58.292Z,16.51
2023-05-28T23:29:28.083Z,16.50
2023-05-28T23:31:55.684Z,16.44
2023-05-28T23:34:23.306Z,16.37
2023-05-28T23:36:50.825Z,16.38
2023-05-28T23:39:20.576Z,16.33
2023-05-28T23:41:48.080Z,16.35
2023-05-28T23:44:15.954Z,16.21
2023-05-28T23:46:44.947Z,16.30
2023-05-28T23:49:12.454Z,16.15
2023-05-28T23:51:39.945Z,16.14
2023-05-28T23:54:07.565Z,16.20
2023-05-28T23:56:35.114Z,16.05
2023-05-28T23:59:02.853Z,16.24
